| time (UTC) | temp F | wind direction | speed MPH | gust MPH | rain 1hr in | rain 24hr in | rain mn in | humidity % | barometer mb |
| 20260902131020 | 78 | 207 | 3.0 | 5.0 | 0.00 | 0.00 | 0.00 | 100 | 1124.6 |
| 20260902125121 | 77 | 202 | 0.0 | 1.0 | 0.00 | 0.00 | 0.00 | 100 | 1124.6 |
| 20260902124119 | 76 | 225 | 2.0 | 4.0 | 0.00 | 0.00 | 0.00 | 100 | 1124.6 |
| 20260902123119 | 76 | 202 | 2.0 | 3.0 | 0.00 | 0.00 | 0.00 | 100 | 1124.6 |
| 20260902122120 | 75 | 157 | 0.0 | 0.0 | 0.00 | 0.00 | 0.00 | 100 | 1124.6 |
| 20260902121119 | 75 | 202 | 0.0 | 1.0 | 0.00 | 0.00 | 0.00 | 100 | 1124.4 |
| 20260902120120 | 75 | 202 | 1.0 | 2.0 | 0.00 | 0.00 | 0.00 | 100 | 1124.2 |
| 20260902114120 | 74 | 202 | 2.0 | 2.0 | 0.00 | 0.00 | 0.00 | 100 | 1124.0 |
| 20260902113219 | 74 | 202 | 0.0 | 1.0 | 0.00 | 0.00 | 0.00 | 100 | 1124.0 |
| 20260902111219 | 74 | 225 | 1.0 | 1.0 | 0.00 | 0.00 | 0.00 | 100 | 1123.7 |
| 20260902095520 | 75 | 225 | 2.0 | 4.0 | 0.00 | 0.00 | 0.00 | 100 | 1123.5 |
| 20260902094520 | 75 | 225 | 1.0 | 2.0 | 0.00 | 0.00 | 0.00 | 100 | 1123.5 |
| 20260902093520 | 75 | 242 | 1.0 | 2.0 | 0.00 | 0.00 | 0.00 | 100 | 1123.6 |
| 20260902091520 | 75 | 210 | 1.0 | 2.0 | 0.00 | 0.00 | 0.00 | 100 | 1123.6 |
| 20260902090521 | 74 | 213 | 2.0 | 3.0 | 0.00 | 0.00 | 0.00 | 100 | 1123.6 |
| 20260902085522 | 73 | 202 | 2.0 | 3.0 | 0.00 | 0.00 | 0.00 | 100 | 1123.6 |
| 20260902083620 | 73 | 180 | 0.0 | 0.0 | 0.00 | 0.00 | 0.00 | 100 | 1123.6 |
| 20260902082719 | 73 | 180 | 0.0 | 0.0 | 0.00 | 0.00 | 0.00 | 100 | 1123.6 |
| 20260902081720 | 73 | 180 | 0.0 | 0.0 | 0.00 | 0.00 | 0.00 | 100 | 1123.6 |
| 20260902075720 | 73 | 180 | 0.0 | 0.0 | 0.00 | 0.00 | 0.00 | 100 | 1123.6 |
| 20260902074818 | 73 | 180 | 0.0 | 0.0 | 0.00 | 0.00 | 0.00 | 100 | 1123.5 |
| 20260902073819 | 73 | 180 | 0.0 | 0.0 | 0.00 | 0.00 | 0.00 | 100 | 1123.5 |
| 20260902072819 | 73 | 180 | 0.0 | 0.0 | 0.00 | 0.00 | 0.00 | 100 | 1123.3 |
| 20260902071820 | 74 | 180 | 0.0 | 0.0 | 0.00 | 0.00 | 0.00 | 100 | 1123.5 |
| 20260902070820 | 74 | 180 | 0.0 | 0.0 | 0.00 | 0.00 | 0.00 | 100 | 1123.5 |
| 20260902065820 | 74 | 180 | 0.0 | 0.0 | 0.00 | 0.00 | 0.00 | 100 | 1123.6 |
| 20260902064919 | 73 | 180 | 0.0 | 1.0 | 0.00 | 0.00 | 0.00 | 100 | 1123.6 |
| 20260902063918 | 73 | 180 | 0.0 | 0.0 | 0.00 | 0.00 | 0.00 | 100 | 1123.6 |
| 20260902062920 | 74 | 157 | 0.0 | 0.0 | 0.00 | 0.00 | 0.00 | 100 | 1123.6 |
| 20260902061919 | 74 | 157 | 0.0 | 0.0 | 0.00 | 0.00 | 0.00 | 100 | 1123.8 |
| 20260902060118 | 74 | 135 | 0.0 | 0.0 | 0.00 | 0.00 | 0.00 | 100 | 1123.8 |
| 20260902055118 | 74 | 135 | 0.0 | 0.0 | 0.00 | 0.00 | 0.00 | 100 | 1123.8 |
| 20260902054119 | 74 | 135 | 1.0 | 1.0 | 0.00 | 0.00 | 0.00 | 100 | 1123.8 |
| 20260902053121 | 74 | 135 | 0.0 | 1.0 | 0.00 | 0.00 | 0.00 | 100 | 1123.6 |
| 20260902052119 | 74 | 135 | 0.0 | 0.0 | 0.00 | 0.00 | 0.00 | 100 | 1123.6 |